Time;durP1;ratioP1;P1;durP2;ratioP2;P2;SDS_P1;SDS_P2;PMS_P1;PMS_P2;Temp;Humidity;BMP_temperature;BMP_pressure;BME280_temperature;BME280_humidity;BME280_pressure;Samples;Min_cycle;Max_cycle;Signal;HPM_P1;HPM_P2
2022/04/30 00:02:08;;;;;;;29.42;18.08;;;358.60;2329.60;;;;;;4973793;28;20034;-81
2022/04/30 00:04:40;;;;;;;29.48;17.63;;;358.50;2329.60;;;;;;4956355;28;20370;-80
2022/04/30 00:07:06;;;;;;;33.63;19.05;;;358.60;2329.60;;;;;;4956586;28;20118;-78
2022/04/30 00:09:33;;;;;;;33.13;19.05;;;358.50;2329.60;;;;;;4956506;28;20101;-79
2022/04/30 00:11:59;;;;;;;33.17;18.05;;;358.50;2329.60;;;;;;4956107;28;20023;-80
2022/04/30 00:14:26;;;;;;;36.08;20.95;;;358.50;2329.60;;;;;;4956358;28;20030;-80
2022/04/30 00:16:52;;;;;;;36.92;19.65;;;358.50;2329.60;;;;;;4956238;28;20477;-80
2022/04/30 00:19:19;;;;;;;32.60;20.73;;;358.50;2329.60;;;;;;4973762;28;20039;-81
2022/04/30 00:21:45;;;;;;;29.30;20.15;;;358.60;2329.60;;;;;;4956150;28;20086;-79
2022/04/30 00:24:10;;;;;;;37.63;24.65;;;358.50;2329.60;;;;;;4956581;28;20035;-80
2022/04/30 00:26:36;;;;;;;42.63;24.60;;;358.60;2329.60;;;;;;4958127;28;20038;-79
2022/04/30 00:29:02;;;;;;;31.55;19.80;;;358.60;2329.60;;;;;;4959389;28;20496;-80
2022/04/30 00:31:28;;;;;;;27.35;18.83;;;358.60;2329.60;;;;;;4959495;28;20062;-81
2022/04/30 00:33:55;;;;;;;28.58;18.90;;;358.60;2329.60;;;;;;4976777;28;20026;-79
2022/04/30 00:36:21;;;;;;;28.20;18.05;;;358.50;2329.60;;;;;;4976660;28;20038;-80
2022/04/30 00:38:47;;;;;;;33.55;18.40;;;358.40;2329.60;;;;;;4976428;28;20424;-81
2022/04/30 00:41:12;;;;;;;26.75;17.38;;;358.40;2329.60;;;;;;4976713;28;20027;-80
2022/04/30 00:43:45;;;;;;;29.70;21.50;;;358.40;2329.60;;;;;;4976274;28;20050;-79
2022/04/30 00:46:15;;;;;;;28.27;18.17;;;358.40;2329.60;;;;;;4959377;28;20389;-80
2022/04/30 00:48:42;;;;;;;27.45;17.88;;;333.70;2329.60;;;;;;4956822;28;20473;-81
2022/04/30 00:51:10;;;;;;;31.90;19.08;;;358.40;2329.60;;;;;;4951552;28;20024;-80
2022/04/30 00:53:50;;;;;;;25.90;18.30;;;358.40;2329.60;;;;;;4958626;28;20034;-80
2022/04/30 00:56:21;;;;;;;24.65;17.63;;;333.60;2329.60;;;;;;4958971;28;20102;-80
2022/04/30 00:58:48;;;;;;;25.48;17.88;;;333.70;2329.60;;;;;;4976085;28;20093;-80
2022/04/30 01:01:19;;;;;;;29.63;18.13;;;333.70;2329.60;;;;;;4958785;28;20061;-79
2022/04/30 01:03:44;;;;;;;25.65;17.33;;;333.70;2329.60;;;;;;4957329;28;20018;-80
2022/04/30 01:06:12;;;;;;;25.83;16.75;;;333.60;2329.60;;;;;;4958333;28;20477;-79
2022/04/30 01:08:38;;;;;;;31.67;16.98;;;333.70;2329.60;;;;;;4958805;28;20058;-80
2022/04/30 01:11:05;;;;;;;25.90;17.33;;;333.70;2329.60;;;;;;4976024;28;20019;-79
2022/04/30 01:13:35;;;;;;;27.02;16.73;;;333.70;2329.60;;;;;;4975936;28;20504;-80
2022/04/30 01:16:07;;;;;;;27.45;17.20;;;333.70;2329.60;;;;;;4972361;28;20014;-80
2022/04/30 01:18:36;;;;;;;25.90;16.95;;;333.70;2329.60;;;;;;4958512;28;20046;-80
2022/04/30 01:21:10;;;;;;;26.75;17.67;;;333.70;2329.60;;;;;;4972098;28;20474;-80
2022/04/30 01:23:36;;;;;;;31.35;19.75;;;333.60;2329.60;;;;;;4958691;28;20031;-79
2022/04/30 01:26:03;;;;;;;25.20;17.08;;;333.50;2329.60;;;;;;4958570;28;20154;-82
2022/04/30 01:28:29;;;;;;;27.42;17.70;;;333.40;2329.60;;;;;;4958610;28;20050;-81
2022/04/30 01:30:55;;;;;;;30.27;17.80;;;333.40;2329.60;;;;;;4957815;28;20027;-81
2022/04/30 01:38:49;;;;;;;27.00;17.80;;;333.30;2329.60;;;;;;4973533;28;20066;-80
2022/04/30 01:41:15;;;;;;;24.33;18.05;;;333.00;2329.60;;;;;;4975462;28;20015;-80
2022/04/30 01:43:43;;;;;;;26.50;17.73;;;333.00;2329.60;;;;;;4973227;28;20014;-81
2022/04/30 01:46:09;;;;;;;28.60;19.15;;;332.90;2329.60;;;;;;4957881;28;20042;-82
2022/04/30 01:48:36;;;;;;;27.52;17.13;;;332.90;2329.60;;;;;;4956996;28;20098;-81
2022/04/30 01:51:02;;;;;;;33.03;19.27;;;333.00;2329.60;;;;;;4955607;28;20430;-82
2022/04/30 01:53:28;;;;;;;27.73;19.42;;;333.00;2329.60;;;;;;4957858;28;20441;-82
2022/04/30 01:55:53;;;;;;;29.75;18.98;;;332.90;2329.60;;;;;;4975297;28;20018;-81
2022/04/30 01:58:20;;;;;;;28.42;20.00;;;332.90;2329.60;;;;;;4975051;28;20376;-81
2022/04/30 02:00:45;;;;;;;27.20;17.48;;;332.90;2329.60;;;;;;4957699;28;20034;-81
2022/04/30 02:03:12;;;;;;;25.38;17.23;;;332.90;2329.60;;;;;;4957353;28;20465;-82
2022/04/30 02:05:40;;;;;;;24.33;17.27;;;332.90;2329.60;;;;;;4974182;28;20034;-80
2022/04/30 02:08:17;;;;;;;28.13;18.10;;;332.90;2329.60;;;;;;4975201;28;20037;-82
2022/04/30 02:10:43;;;;;;;23.73;16.40;;;332.90;2329.60;;;;;;4946243;28;20018;-80
2022/04/30 02:13:10;;;;;;;24.98;16.27;;;332.90;2329.60;;;;;;4957605;28;20440;-81
2022/04/30 02:15:40;;;;;;;21.17;14.80;;;308.00;2304.00;;;;;;4974745;28;20018;-82
2022/04/30 02:18:10;;;;;;;30.23;17.38;;;307.70;2304.00;;;;;;4972916;28;20057;-81
2022/04/30 02:20:42;;;;;;;23.45;14.85;;;307.50;2304.00;;;;;;4957656;28;20038;-82
2022/04/30 02:23:09;;;;;;;19.90;13.27;;;307.40;2304.00;;;;;;4972993;28;20054;-81
2022/04/30 02:25:36;;;;;;;18.33;12.75;;;307.30;2304.00;;;;;;4975164;28;20026;-83
2022/04/30 02:28:04;;;;;;;17.15;12.82;;;307.20;2304.00;;;;;;4957321;28;20244;-83
2022/04/30 02:30:32;;;;;;;15.98;11.48;;;307.20;2304.00;;;;;;4957217;28;20042;-82
2022/04/30 02:33:11;;;;;;;20.83;14.15;;;307.30;2304.00;;;;;;4957528;28;20023;-83
2022/04/30 02:35:39;;;;;;;22.15;14.60;;;307.20;2304.00;;;;;;4956738;28;20026;-82
2022/04/30 02:38:08;;;;;;;21.60;15.98;;;307.30;2304.00;;;;;;4971016;28;20484;-81
2022/04/30 02:40:34;;;;;;;28.00;16.85;;;307.20;2304.00;;;;;;4957388;28;20027;-82
2022/04/30 02:43:08;;;;;;;26.02;17.63;;;307.40;2304.00;;;;;;4956928;28;20026;-81
2022/04/30 02:45:36;;;;;;;27.40;17.63;;;307.60;2304.00;;;;;;4974700;28;20019;-82
2022/04/30 02:48:03;;;;;;;25.08;17.00;;;307.70;2304.00;;;;;;4974271;28;20392;-81
2022/04/30 02:50:29;;;;;;;28.40;17.52;;;307.80;2304.00;;;;;;4956194;28;20034;-81
2022/04/30 02:52:55;;;;;;;26.67;18.85;;;307.90;2304.00;;;;;;4956896;28;20030;-83
2022/04/30 02:55:22;;;;;;;27.65;18.55;;;308.00;2304.00;;;;;;4956829;28;20027;-80
2022/04/30 03:00:46;;;;;;;31.88;19.08;;;308.10;2304.00;;;;;;4972885;28;20058;-83
2022/04/30 03:03:13;;;;;;;29.17;17.95;;;308.10;2304.00;;;;;;4954441;28;20035;-82
2022/04/30 03:05:41;;;;;;;27.45;18.73;;;332.80;2329.60;;;;;;4974207;28;20029;-80
2022/04/30 03:08:12;;;;;;;29.55;18.90;;;332.90;2329.60;;;;;;4954152;28;20044;-80
2022/04/30 03:10:39;;;;;;;30.13;19.17;;;332.90;2329.60;;;;;;4974259;28;20023;-79
2022/04/30 03:13:06;;;;;;;31.10;19.52;;;332.90;2329.60;;;;;;4973965;28;20022;-79
2022/04/30 03:15:33;;;;;;;31.02;19.55;;;332.90;2329.60;;;;;;4973879;28;20015;-82
2022/04/30 03:23:28;;;;;;;29.85;20.50;;;332.90;2329.60;;;;;;4971843;28;20038;-78
2022/04/30 03:25:54;;;;;;;34.22;20.77;;;332.90;2329.60;;;;;;4956186;28;20027;-80
2022/04/30 03:28:20;;;;;;;30.52;19.40;;;332.90;2329.60;;;;;;4956039;28;20405;-80
2022/04/30 03:30:46;;;;;;;28.90;19.50;;;332.90;2329.60;;;;;;4956089;28;20019;-77
2022/04/30 03:33:12;;;;;;;32.72;20.48;;;332.90;2329.60;;;;;;4973832;28;20019;-80
2022/04/30 03:35:42;;;;;;;34.95;19.77;;;333.00;2329.60;;;;;;4956128;28;20018;-78
2022/04/30 03:38:08;;;;;;;31.30;18.33;;;333.00;2329.60;;;;;;4953838;28;20026;-78
2022/04/30 03:40:35;;;;;;;35.75;20.23;;;333.00;2329.60;;;;;;4973603;28;20082;-78
2022/04/30 03:43:01;;;;;;;30.33;18.80;;;332.90;2329.60;;;;;;4956104;28;20037;-79
2022/04/30 03:45:28;;;;;;;31.40;19.17;;;333.00;2329.60;;;;;;4970797;28;20023;-79
2022/04/30 03:47:54;;;;;;;31.33;18.98;;;333.00;2329.60;;;;;;4973422;28;20027;-80
2022/04/30 03:50:19;;;;;;;28.13;19.90;;;333.10;2329.60;;;;;;4956224;28;20487;-80
2022/04/30 03:52:45;;;;;;;31.10;19.60;;;333.10;2329.60;;;;;;4973125;28;20078;-80
2022/04/30 03:55:11;;;;;;;32.70;19.08;;;333.10;2329.60;;;;;;4955923;28;20030;-78
2022/04/30 03:57:37;;;;;;;30.42;20.20;;;333.00;2329.60;;;;;;4973312;28;20022;-80
2022/04/30 04:00:04;;;;;;;29.45;20.63;;;333.00;2329.60;;;;;;4972716;28;20046;-81
2022/04/30 04:02:31;;;;;;;33.13;20.02;;;333.10;2329.60;;;;;;4970720;28;20085;-79
2022/04/30 04:04:56;;;;;;;40.38;19.90;;;333.10;2329.60;;;;;;4973188;28;20054;-80
2022/04/30 04:07:22;;;;;;;34.08;21.27;;;333.20;2329.60;;;;;;4973292;28;20062;-79
2022/04/30 04:09:48;;;;;;;35.25;19.52;;;333.20;2329.60;;;;;;4972867;28;20018;-78
2022/04/30 04:12:14;;;;;;;31.42;18.90;;;333.30;2329.60;;;;;;4955702;28;20030;-80
2022/04/30 04:17:39;;;;;;;27.52;18.23;;;333.40;2329.60;;;;;;4972890;28;20061;-80
2022/04/30 04:20:19;;;;;;;26.70;17.13;;;333.30;2329.60;;;;;;4955868;28;20022;-79
2022/04/30 04:22:46;;;;;;;26.08;17.60;;;333.20;2329.60;;;;;;4955607;28;20142;-78
2022/04/30 04:27:57;;;;;;;27.70;18.23;;;333.20;2329.60;;;;;;4971323;28;20082;-79
2022/04/30 04:30:25;;;;;;;22.33;16.38;;;333.20;2329.60;;;;;;4955332;28;20118;-81
2022/04/30 04:32:52;;;;;;;25.13;16.80;;;333.10;2329.60;;;;;;4956035;28;20031;-82
2022/04/30 04:35:18;;;;;;;31.23;17.42;;;332.90;2329.60;;;;;;4956068;28;20027;-79
2022/04/30 04:37:44;;;;;;;24.52;15.07;;;333.10;2329.60;;;;;;4956092;28;20043;-80
2022/04/30 04:40:11;;;;;;;21.33;14.52;;;333.10;2329.60;;;;;;4970450;28;20015;-77
2022/04/30 04:42:39;;;;;;;21.52;12.93;;;333.10;2329.60;;;;;;4955882;28;20034;-78
2022/04/30 04:45:05;;;;;;;18.95;12.38;;;333.20;2329.60;;;;;;4972949;28;20011;-82
2022/04/30 04:47:31;;;;;;;14.27;10.23;;;333.20;2329.60;;;;;;4967887;28;20035;-82
2022/04/30 04:49:57;;;;;;;16.63;10.70;;;333.20;2329.60;;;;;;4956223;28;20049;-83
2022/04/30 04:52:23;;;;;;;18.00;11.65;;;333.20;2329.60;;;;;;4954896;28;20034;-80
2022/04/30 04:54:49;;;;;;;16.73;11.20;;;333.30;2329.60;;;;;;4955506;28;20042;-79
2022/04/30 04:57:15;;;;;;;16.42;11.63;;;333.60;2329.60;;;;;;4955184;28;20022;-80
2022/04/30 04:59:41;;;;;;;20.33;12.25;;;333.50;2329.60;;;;;;4972727;28;20078;-83
2022/04/30 05:02:07;;;;;;;14.43;11.13;;;333.60;2329.60;;;;;;4955662;28;20023;-80
2022/04/30 05:04:33;;;;;;;15.18;10.15;;;333.70;2329.60;;;;;;4955683;28;20045;-79
2022/04/30 05:07:01;;;;;;;19.10;11.30;;;358.40;2329.60;;;;;;4954900;28;20105;-80
2022/04/30 05:09:27;;;;;;;17.85;10.50;;;358.40;2329.60;;;;;;4955617;28;20015;-79
2022/04/30 05:11:54;;;;;;;16.50;9.98;;;358.50;2329.60;;;;;;4955422;28;20027;-79
2022/04/30 05:14:19;;;;;;;14.43;10.50;;;358.60;2329.60;;;;;;4975289;28;20082;-79
2022/04/30 05:16:45;;;;;;;12.95;9.40;;;358.60;2329.60;;;;;;4975998;28;20027;-78
2022/04/30 05:19:11;;;;;;;15.63;10.00;;;358.70;2329.60;;;;;;4958221;28;20027;-79
2022/04/30 05:21:37;;;;;;;13.50;10.65;;;358.80;2329.60;;;;;;4958296;28;20469;-80
2022/04/30 05:24:02;;;;;;;15.65;9.32;;;358.90;2329.60;;;;;;4958643;28;20023;-80
2022/04/30 05:26:28;;;;;;;13.50;10.15;;;359.00;2329.60;;;;;;4958789;28;20401;-77
2022/04/30 05:28:54;;;;;;;13.35;9.60;;;359.10;2329.60;;;;;;4957935;28;20409;-81
2022/04/30 05:31:20;;;;;;;13.73;10.23;;;359.20;2329.60;;;;;;4958379;28;20434;-82
2022/04/30 05:33:45;;;;;;;13.23;9.20;;;384.00;2329.60;;;;;;4959284;28;20110;-82
2022/04/30 05:36:11;;;;;;;13.13;9.27;;;384.10;2329.60;;;;;;4959085;28;20055;-83
2022/04/30 05:38:37;;;;;;;16.02;8.68;;;384.20;2329.60;;;;;;4958921;28;20078;-83
2022/04/30 05:41:03;;;;;;;10.30;7.82;;;384.30;2329.60;;;;;;4958228;28;20027;-82
2022/04/30 05:43:28;;;;;;;12.52;9.00;;;384.30;2329.60;;;;;;4958246;28;20118;-80
2022/04/30 05:45:54;;;;;;;17.48;9.65;;;384.30;2329.60;;;;;;4957749;28;20082;-81
2022/04/30 05:48:20;;;;;;;16.33;8.38;;;384.40;2329.60;;;;;;4975339;28;20390;-77
2022/04/30 05:50:46;;;;;;;13.80;8.60;;;384.50;2329.60;;;;;;4975487;28;20030;-82
2022/04/30 05:53:12;;;;;;;15.23;10.43;;;384.50;2329.60;;;;;;4975134;28;20433;-79
2022/04/30 05:55:37;;;;;;;16.00;8.43;;;384.50;2329.60;;;;;;4957824;28;20029;-77
2022/04/30 05:58:03;;;;;;;12.57;9.75;;;384.60;2329.60;;;;;;4957681;28;20415;-79
2022/04/30 06:00:29;;;;;;;16.60;10.07;;;384.70;2329.60;;;;;;4956686;28;20043;-78
2022/04/30 06:02:55;;;;;;;12.15;8.70;;;384.90;2329.60;;;;;;4957400;28;20022;-80
2022/04/30 06:05:22;;;;;;;12.05;8.60;;;384.70;2329.60;;;;;;4974884;28;20502;-77
2022/04/30 06:07:49;;;;;;;10.88;8.75;;;384.40;2329.60;;;;;;4957259;28;20146;-80
2022/04/30 06:10:15;;;;;;;13.15;10.18;;;384.80;2329.60;;;;;;4957810;28;20019;-80
2022/04/30 06:12:41;;;;;;;15.23;10.07;;;384.90;2329.60;;;;;;4957473;28;20444;-79
2022/04/30 06:15:07;;;;;;;13.98;10.40;;;409.60;2355.20;;;;;;4958037;28;20026;-79
2022/04/30 06:17:33;;;;;;;16.48;9.48;;;409.60;2355.20;;;;;;4957832;28;20023;-79
2022/04/30 06:20:00;;;;;;;15.20;11.27;;;409.60;2355.20;;;;;;4958029;28;20027;-80
2022/04/30 06:22:26;;;;;;;15.30;11.52;;;409.70;2355.20;;;;;;4957694;28;20035;-80
2022/04/30 06:24:51;;;;;;;16.35;10.35;;;409.90;2355.20;;;;;;4975211;28;20078;-79
2022/04/30 06:27:17;;;;;;;13.68;8.50;;;409.80;2355.20;;;;;;4974682;28;20517;-80
2022/04/30 06:29:44;;;;;;;17.10;9.18;;;410.00;2355.20;;;;;;4973969;28;20082;-80
2022/04/30 06:32:09;;;;;;;14.43;9.20;;;410.00;2355.20;;;;;;4975086;28;20039;-80
2022/04/30 06:34:35;;;;;;;15.55;9.20;;;410.00;2355.20;;;;;;4957748;28;20449;-79
2022/04/30 06:37:01;;;;;;;12.35;8.00;;;410.20;2355.20;;;;;;4957593;28;20382;-79
2022/04/30 06:39:27;;;;;;;13.52;8.57;;;410.30;2355.20;;;;;;4957450;28;20030;-80
2022/04/30 06:41:52;;;;;;;13.48;10.55;;;410.20;2355.20;;;;;;4957226;28;20070;-81
2022/04/30 06:44:18;;;;;;;17.58;9.98;;;410.20;2355.20;;;;;;4957983;28;20038;-78
2022/04/30 06:46:44;;;;;;;13.95;9.43;;;410.20;2355.20;;;;;;4957371;28;20516;-80
2022/04/30 06:49:10;;;;;;;13.88;9.73;;;410.20;2355.20;;;;;;4957576;28;20062;-81
2022/04/30 06:51:36;;;;;;;13.40;10.15;;;410.20;2355.20;;;;;;4956418;28;20031;-80
2022/04/30 06:57:07;;;;;;;14.02;10.13;;;410.40;2355.20;;;;;;4975557;28;20517;-81
2022/04/30 06:59:37;;;;;;;13.10;10.27;;;410.40;2355.20;;;;;;4974582;28;20172;-85
2022/04/30 07:02:07;;;;;;;12.82;9.18;;;435.20;2355.20;;;;;;4974964;28;20030;-84
2022/04/30 07:04:33;;;;;;;13.40;9.32;;;435.30;2355.20;;;;;;4957874;28;20027;-81
2022/04/30 07:07:00;;;;;;;12.45;9.48;;;435.30;2355.20;;;;;;4957843;28;20039;-85
2022/04/30 07:09:28;;;;;;;13.65;8.57;;;435.70;2355.20;;;;;;4974883;28;20026;-82
2022/04/30 07:11:54;;;;;;;10.93;7.40;;;435.60;2355.20;;;;;;4957910;28;20027;-80
2022/04/30 07:14:20;;;;;;;11.27;8.75;;;435.80;2355.20;;;;;;4957207;28;20540;-78
2022/04/30 07:16:46;;;;;;;10.73;6.88;;;435.90;2355.20;;;;;;4957767;28;20034;-83
2022/04/30 07:19:12;;;;;;;12.93;8.02;;;435.80;2355.20;;;;;;4957046;28;20026;-81
2022/04/30 07:21:38;;;;;;;11.45;8.88;;;435.80;2355.20;;;;;;4957166;28;20042;-81
2022/04/30 07:24:04;;;;;;;12.75;8.82;;;435.60;2355.20;;;;;;4957557;28;20034;-83
2022/04/30 07:26:30;;;;;;;13.07;9.52;;;435.60;2355.20;;;;;;4956877;28;20030;-84
2022/04/30 07:28:56;;;;;;;17.77;10.98;;;435.60;2355.20;;;;;;4956852;28;20034;-82
2022/04/30 07:31:21;;;;;;;20.52;11.52;;;435.60;2355.20;;;;;;4956273;28;20047;-89
2022/04/30 07:33:49;;;;;;;16.80;11.98;;;435.60;2355.20;;;;;;4956069;28;20031;-79
2022/04/30 07:36:15;;;;;;;17.95;11.85;;;435.80;2355.20;;;;;;4955579;28;20487;-79
2022/04/30 07:38:41;;;;;;;14.20;10.90;;;436.10;2355.20;;;;;;4973950;28;20031;-80
2022/04/30 07:41:06;;;;;;;13.95;10.55;;;460.90;2380.80;;;;;;4973341;28;20058;-81
2022/04/30 07:43:32;;;;;;;13.48;9.57;;;460.90;2380.80;;;;;;4956416;28;20067;-80
2022/04/30 07:45:58;;;;;;;15.82;11.20;;;460.90;2380.80;;;;;;4956569;28;20026;-77
2022/04/30 07:48:24;;;;;;;21.38;11.70;;;461.10;2380.80;;;;;;4956087;28;20101;-81
2022/04/30 07:50:49;;;;;;;14.95;11.27;;;461.20;2380.80;;;;;;4955895;28;20035;-81
2022/04/30 07:53:16;;;;;;;15.55;10.15;;;461.20;2380.80;;;;;;4973741;28;20086;-80
2022/04/30 07:55:44;;;;;;;13.27;10.43;;;461.30;2380.80;;;;;;4956999;28;20162;-81
2022/04/30 07:58:10;;;;;;;13.70;11.52;;;461.30;2380.80;;;;;;4956287;28;20027;-81
2022/04/30 08:00:36;;;;;;;17.13;11.27;;;461.40;2380.80;;;;;;4973572;28;20059;-81
2022/04/30 08:03:03;;;;;;;11.40;9.25;;;461.30;2380.80;;;;;;4973413;28;20472;-80
2022/04/30 08:05:29;;;;;;;16.35;10.90;;;461.50;2380.80;;;;;;4956276;28;20054;-78
2022/04/30 08:07:56;;;;;;;13.45;9.15;;;461.50;2380.80;;;;;;4973373;28;20039;-82
2022/04/30 08:10:22;;;;;;;14.00;9.90;;;461.40;2380.80;;;;;;4973747;28;20027;-80
2022/04/30 08:12:53;;;;;;;11.63;9.13;;;461.70;2380.80;;;;;;4956327;28;20049;-80
2022/04/30 08:15:23;;;;;;;14.02;9.20;;;461.70;2380.80;;;;;;4957079;28;20027;-83
2022/04/30 08:17:48;;;;;;;10.57;8.93;;;486.40;2380.80;;;;;;4974208;28;20094;-83
2022/04/30 08:20:15;;;;;;;13.50;8.60;;;486.50;2380.80;;;;;;4956523;28;20023;-87
2022/04/30 08:22:41;;;;;;;14.77;9.40;;;486.60;2380.80;;;;;;4956618;28;20105;-82
2022/04/30 08:25:07;;;;;;;10.45;7.65;;;461.70;2380.80;;;;;;4974127;28;20031;-79
2022/04/30 08:27:33;;;;;;;11.27;8.02;;;486.40;2380.80;;;;;;4956474;28;20477;-79
2022/04/30 08:29:59;;;;;;;10.65;7.45;;;486.40;2380.80;;;;;;4973492;28;20033;-78
2022/04/30 08:32:26;;;;;;;19.88;11.35;;;486.50;2380.80;;;;;;4973107;28;20061;-78
2022/04/30 08:34:52;;;;;;;10.30;8.32;;;486.40;2380.80;;;;;;4955788;28;20397;-78
2022/04/30 08:37:18;;;;;;;12.75;8.75;;;461.70;2380.80;;;;;;4973398;28;20031;-79
2022/04/30 08:39:44;;;;;;;23.20;8.00;;;461.70;2380.80;;;;;;4955969;28;20026;-81
2022/04/30 08:42:14;;;;;;;14.95;9.25;;;461.70;2380.80;;;;;;4955258;28;20062;-79
2022/04/30 08:44:40;;;;;;;9.05;6.97;;;486.40;2380.80;;;;;;4953483;28;20081;-78
2022/04/30 08:47:10;;;;;;;10.52;8.45;;;486.40;2380.80;;;;;;4972845;28;20034;-79
2022/04/30 08:49:42;;;;;;;8.75;7.30;;;486.40;2380.80;;;;;;4975238;28;20030;-80
2022/04/30 08:52:08;;;;;;;11.55;9.20;;;486.60;2380.80;;;;;;4958924;28;20022;-77
2022/04/30 08:54:34;;;;;;;17.27;8.98;;;486.80;2380.80;;;;;;4976269;28;20030;-78
2022/04/30 08:57:00;;;;;;;24.55;10.20;;;486.90;2380.80;;;;;;4975310;28;20378;-78
2022/04/30 08:59:27;;;;;;;10.05;8.25;;;486.90;2380.80;;;;;;4958421;28;20405;-78
2022/04/30 09:02:01;;;;;;;9.98;7.03;;;487.10;2380.80;;;;;;4976127;28;20468;-78
2022/04/30 09:04:44;;;;;;;10.45;8.27;;;487.20;2380.80;;;;;;4958920;28;20200;-78
2022/04/30 09:07:15;;;;;;;9.35;7.40;;;487.20;2380.80;;;;;;4959379;28;20089;-79
2022/04/30 09:09:40;;;;;;;10.50;6.38;;;487.30;2380.80;;;;;;4976226;28;20098;-79
2022/04/30 09:12:09;;;;;;;9.48;7.60;;;487.30;2380.80;;;;;;4975139;28;20600;-78
2022/04/30 09:14:37;;;;;;;10.27;7.78;;;512.60;2380.80;;;;;;4976422;28;20098;-79
2022/04/30 09:17:07;;;;;;;9.95;8.07;;;512.30;2380.80;;;;;;4958842;28;20033;-79
2022/04/30 09:19:44;;;;;;;12.07;6.75;;;512.30;2380.80;;;;;;4958995;28;20023;-79
2022/04/30 09:22:10;;;;;;;7.95;6.63;;;512.20;2380.80;;;;;;4975698;28;20066;-81
2022/04/30 09:24:50;;;;;;;6.90;5.72;;;512.40;2380.80;;;;;;4976074;28;20019;-78
2022/04/30 09:27:17;;;;;;;9.13;6.47;;;512.50;2304.00;;;;;;4958936;28;20045;-79
2022/04/30 09:29:43;;;;;;;16.25;6.93;;;512.60;2380.80;;;;;;4957888;28;20046;-79
2022/04/30 09:32:17;;;;;;;9.98;7.45;;;512.40;2380.80;;;;;;4975967;28;20109;-78
2022/04/30 09:37:41;;;;;;;8.35;6.35;;;512.60;2304.00;;;;;;4975556;28;20034;-79
2022/04/30 09:40:13;;;;;;;9.10;5.97;;;512.40;2380.80;;;;;;4957886;28;20049;-79
2022/04/30 09:42:40;;;;;;;8.13;6.10;;;512.50;2380.80;;;;;;4957698;28;20023;-78
2022/04/30 09:45:07;;;;;;;12.60;5.78;;;512.90;2380.80;;;;;;4958261;28;20042;-78
2022/04/30 09:47:36;;;;;;;9.52;6.28;;;537.60;2252.80;;;;;;4957224;28;20050;-77
2022/04/30 09:55:32;;;;;;;10.43;7.15;;;512.70;2278.40;;;;;;4975250;28;20300;-79
2022/04/30 09:58:03;;;;;;;8.85;6.63;;;512.70;2329.60;;;;;;4956925;28;20023;-78
2022/04/30 10:00:32;;;;;;;8.02;6.10;;;512.40;2304.00;;;;;;4957562;28;20456;-79
2022/04/30 10:03:01;;;;;;;16.90;7.45;;;512.30;2227.20;;;;;;4971444;28;20022;-78
2022/04/30 10:05:30;;;;;;;11.13;7.13;;;512.30;2329.60;;;;;;4974649;28;20030;-78
2022/04/30 10:07:56;;;;;;;8.00;6.25;;;512.50;2329.60;;;;;;4972071;28;20066;-78
2022/04/30 10:10:34;;;;;;;7.47;5.65;;;512.60;2124.80;;;;;;4956942;28;20066;-79
2022/04/30 10:13:36;;;;;;;8.55;5.97;;;537.70;2176.00;;;;;;4988194;28;20086;-77
2022/04/30 10:16:04;;;;;;;7.35;5.53;;;512.50;2278.40;;;;;;4955900;28;20019;-78
2022/04/30 10:18:34;;;;;;;8.38;6.03;;;512.40;2329.60;;;;;;4956661;28;20023;-77
2022/04/30 10:21:02;;;;;;;8.75;6.32;;;512.30;2380.80;;;;;;4974102;28;20050;-78
2022/04/30 10:23:29;;;;;;;7.70;6.22;;;512.20;2329.60;;;;;;4956660;28;20449;-78
2022/04/30 10:26:06;;;;;;;10.38;6.97;;;512.20;2380.80;;;;;;4956998;28;20050;-78
2022/04/30 10:28:32;;;;;;;7.32;5.53;;;512.00;2380.80;;;;;;4957629;28;20511;-80
2022/04/30 10:31:00;;;;;;;7.80;5.78;;;512.00;2380.80;;;;;;4957598;28;20035;-79
2022/04/30 10:33:26;;;;;;;7.18;4.95;;;487.30;2380.80;;;;;;4957833;28;20027;-79
2022/04/30 10:36:07;;;;;;;6.43;5.30;;;512.00;2380.80;;;;;;4957680;28;20096;-80
2022/04/30 10:38:33;;;;;;;6.55;4.60;;;512.00;2380.80;;;;;;4957533;28;20058;-79
2022/04/30 10:41:01;;;;;;;8.55;5.20;;;487.30;2355.20;;;;;;4957415;28;20085;-78
2022/04/30 10:43:35;;;;;;;7.72;5.30;;;487.30;2252.80;;;;;;4957462;28;20110;-80
2022/04/30 10:46:03;;;;;;;7.90;5.10;;;512.00;2304.00;;;;;;4957997;28;20028;-83
2022/04/30 10:48:29;;;;;;;10.68;5.43;;;512.00;2355.20;;;;;;4957468;28;20046;-80
2022/04/30 10:51:01;;;;;;;7.10;5.20;;;512.20;2355.20;;;;;;4957377;28;20019;-81
2022/04/30 10:53:28;;;;;;;7.63;4.70;;;537.70;2329.60;;;;;;4957379;28;20186;-80
2022/04/30 10:55:54;;;;;;;6.00;5.10;;;538.30;2176.00;;;;;;4956434;28;20113;-81
2022/04/30 10:58:24;;;;;;;5.80;4.80;;;538.00;2176.00;;;;;;4955985;28;20110;-80
2022/04/30 11:00:51;;;;;;;8.00;5.00;;;538.50;2124.80;;;;;;4945740;28;20040;-80
2022/04/30 11:03:17;;;;;;;8.93;5.80;;;538.30;2124.80;;;;;;4955197;29;20102;-79
2022/04/30 11:05:47;;;;;;;9.65;5.32;;;538.00;2073.60;;;;;;4937903;29;20106;-80
2022/04/30 11:08:13;;;;;;;5.85;4.45;;;538.40;2150.40;;;;;;4955205;29;20039;-81
2022/04/30 11:10:50;;;;;;;6.65;4.93;;;538.10;2150.40;;;;;;4936860;29;20031;-79
2022/04/30 11:13:16;;;;;;;7.10;5.20;;;538.10;2073.60;;;;;;4937860;29;20372;-79
2022/04/30 11:15:42;;;;;;;6.45;5.30;;;537.90;2150.40;;;;;;4945312;28;20035;-79
2022/04/30 11:18:07;;;;;;;9.10;5.30;;;537.60;2099.20;;;;;;4937642;28;20028;-79
2022/04/30 11:20:33;;;;;;;8.40;5.57;;;512.90;2099.20;;;;;;4946883;28;20433;-78
2022/04/30 11:23:02;;;;;;;7.10;5.25;;;537.70;2252.80;;;;;;4947082;28;20602;-79
2022/04/30 11:25:36;;;;;;;6.68;5.15;;;538.50;2227.20;;;;;;4942977;28;20078;-79
2022/04/30 11:28:09;;;;;;;7.88;4.97;;;538.00;2124.80;;;;;;4963254;28;20093;-79
2022/04/30 11:30:42;;;;;;;8.15;6.25;;;537.70;2150.40;;;;;;4944362;28;20053;-78
2022/04/30 11:33:09;;;;;;;13.05;6.75;;;537.90;2150.40;;;;;;4947147;28;20023;-79
2022/04/30 11:35:35;;;;;;;7.50;5.65;;;538.00;2150.40;;;;;;4962772;28;20501;-80
2022/04/30 11:38:03;;;;;;;7.72;5.93;;;537.80;2304.00;;;;;;4963513;28;20384;-79
2022/04/30 11:40:29;;;;;;;16.02;8.68;;;512.90;2150.40;;;;;;4947418;28;20065;-80
2022/04/30 11:43:02;;;;;;;10.07;6.32;;;512.90;2227.20;;;;;;4947109;28;20503;-79
2022/04/30 11:45:31;;;;;;;8.13;6.40;;;537.60;2201.60;;;;;;4964226;28;20106;-79
2022/04/30 11:47:57;;;;;;;9.50;5.68;;;538.10;2252.80;;;;;;4944308;29;20122;-79
2022/04/30 11:50:25;;;;;;;6.65;5.30;;;563.30;2201.60;;;;;;4943248;28;20031;-79
2022/04/30 11:52:51;;;;;;;8.52;5.60;;;563.60;1996.80;;;;;;4945170;28;20030;-80
2022/04/30 11:55:20;;;;;;;6.22;4.90;;;563.90;1996.80;;;;;;4946974;28;20066;-79
2022/04/30 11:57:47;;;;;;;12.32;5.45;;;589.20;1817.60;;;;;;4945961;28;20186;-80
2022/04/30 12:00:14;;;;;;;5.95;4.80;;;589.10;1740.80;;;;;;4955256;28;20050;-80
2022/04/30 12:02:42;;;;;;;9.23;5.13;;;589.00;1792.00;;;;;;4956270;28;20035;-80
2022/04/30 12:05:09;;;;;;;8.30;5.40;;;564.00;1843.20;;;;;;4944649;28;20090;-79
2022/04/30 12:07:40;;;;;;;10.75;6.28;;;563.60;1920.00;;;;;;4946285;28;20119;-79
2022/04/30 12:10:20;;;;;;;6.57;5.00;;;564.10;1868.80;;;;;;4946292;28;20033;-79
2022/04/30 12:12:47;;;;;;;10.68;5.80;;;588.80;1817.60;;;;;;4963987;28;20027;-79
2022/04/30 12:15:19;;;;;;;10.35;6.45;;;563.70;1920.00;;;;;;4945233;28;20102;-81
2022/04/30 12:17:45;;;;;;;8.15;6.40;;;563.30;1920.00;;;;;;4944357;28;20047;-79
2022/04/30 12:26:03;;;;;;;8.77;5.90;;;538.20;2073.60;;;;;;4977560;28;20043;-79
2022/04/30 12:28:30;;;;;;;7.35;6.18;;;563.40;1996.80;;;;;;4977360;28;20035;-80
2022/04/30 12:30:56;;;;;;;8.05;5.90;;;563.70;2099.20;;;;;;4959791;28;20114;-80
2022/04/30 12:33:22;;;;;;;12.50;6.43;;;564.00;1920.00;;;;;;4959417;28;20039;-80
2022/04/30 12:35:56;;;;;;;8.10;5.07;;;588.90;1868.80;;;;;;4959553;28;20027;-80
2022/04/30 12:38:22;;;;;;;8.75;6.70;;;589.00;1843.20;;;;;;4976994;28;20037;-80
2022/04/30 12:40:47;;;;;;;7.53;5.88;;;589.10;1817.60;;;;;;4977024;28;20027;-80
2022/04/30 12:43:14;;;;;;;7.85;5.70;;;589.00;1740.80;;;;;;4976823;28;20054;-80
2022/04/30 12:45:49;;;;;;;7.38;5.65;;;564.10;1945.60;;;;;;4959745;28;20101;-79